Superstar Express — 3FFX9 — position and weather

sailwx.info

Track history (hours):
 
Tides and Currents Weather Stations Pressure Air Temp Water Temp Dewpoint Dewpoint Depression Visibility Wind Speed Wind Dir Waves Ship Positions

Superstar Express

Operator: P & O Irish Sea

Last reported at 2018-Feb-22 17:36 UTC. Time now 2018-Feb-26 01:16 UTC.
Position N 09°11' W 079°53'.

Length 183 m; draft 11.9 m.

Type: Ship. MMSI: 351360000.

Date/timePositionNaut miles runAvg speedWind from/ knotsBaromVisibWave heightAir tempDewpointWater temp
2018-Feb-22 17:36N 09°11' W 079°53'1 9.5
2018-Feb-22 17:28N 09°12' W 079°54'4 7.6
2018-Feb-22 17:00N 09°15' W 079°55'1 1.2
2018-Feb-22 16:30N 09°15' W 079°55'0 0.0
2018-Feb-22 16:00N 09°15' W 079°55'0 0.0
2018-Feb-22 15:24N 09°15' W 079°55'0 0.0
2018-Feb-22 15:00N 09°15' W 079°55'0 0.0
2018-Feb-22 14:24N 09°15' W 079°55'0 0.0
2018-Feb-22 14:00N 09°15' W 079°55'0 0.0
2018-Feb-22 13:30N 09°15' W 079°55'0 0.1
2018-Feb-22 12:51N 09°15' W 079°55'0 0.2
2018-Feb-22 12:15N 09°15' W 079°55'0 0.3
2018-Feb-22 11:54N 09°15' W 079°55'1 2.1
2018-Feb-22 11:30N 09°16' W 079°55'0 0.3
2018-Feb-22 11:00N 09°16' W 079°55'0 0.3
2018-Feb-22 10:30N 09°16' W 079°55'0 0.3
2018-Feb-22 10:00N 09°17' W 079°55'0 0.7
2018-Feb-22 09:30N 09°17' W 079°55'1 2.8
2018-Feb-22 09:00N 09°18' W 079°55'3 5.8
2018-Feb-22 08:30N 09°21' W 079°55'4 6.7
2018-Feb-22 07:58N 09°25' W 079°55'4 8.5
2018-Feb-22 07:30N 09°27' W 079°59'2 3.2
2018-Feb-22 07:00N 09°27' W 080°00'1 1.2
2018-Feb-22 06:31N 09°28' W 079°60'0 0.8
2018-Feb-22 05:59N 09°28' W 079°59'1 1.1
2018-Feb-22 05:30N 09°28' W 079°59'1 1.2
2018-Feb-22 05:00N 09°29' W 079°59'1 1.2
2018-Feb-22 04:26N 09°30' W 079°59'1 1.2
2018-Feb-22 03:54N 09°30' W 079°59'1 1.2
2018-Feb-22 03:24N 09°31' W 079°58'2 3.4
2018-Feb-22 02:54N 09°32' W 079°60'  
Track history (hours):
 
Tides and Currents Weather Stations Pressure Air Temp Water Temp Dewpoint Dewpoint Depression Visibility Wind Speed Wind Dir Waves Ship Positions

Superstar Express

Operator: P & O Irish Sea

Last reported at 2018-Feb-22 17:36 UTC. Time now 2018-Feb-26 01:16 UTC.
Position N 09°11' W 079°53'.

Length 183 m; draft 11.9 m.

Type: Ship. MMSI: 351360000.

Date/timePositionNaut miles runAvg speedWind from/ knotsBaromVisibWave heightAir tempDewpointWater temp
2018-Feb-22 17:36N 09°11' W 079°53'1 9.5
2018-Feb-22 17:28N 09°12' W 079°54'4 7.6
2018-Feb-22 17:00N 09°15' W 079°55'1 1.2
2018-Feb-22 16:30N 09°15' W 079°55'0 0.0
2018-Feb-22 16:00N 09°15' W 079°55'0 0.0
2018-Feb-22 15:24N 09°15' W 079°55'0 0.0
2018-Feb-22 15:00N 09°15' W 079°55'0 0.0
2018-Feb-22 14:24N 09°15' W 079°55'0 0.0
2018-Feb-22 14:00N 09°15' W 079°55'0 0.0
2018-Feb-22 13:30N 09°15' W 079°55'0 0.1
2018-Feb-22 12:51N 09°15' W 079°55'0 0.2
2018-Feb-22 12:15N 09°15' W 079°55'0 0.3
2018-Feb-22 11:54N 09°15' W 079°55'1 2.1
2018-Feb-22 11:30N 09°16' W 079°55'0 0.3
2018-Feb-22 11:00N 09°16' W 079°55'0 0.3
2018-Feb-22 10:30N 09°16' W 079°55'0 0.3
2018-Feb-22 10:00N 09°17' W 079°55'0 0.7
2018-Feb-22 09:30N 09°17' W 079°55'1 2.8
2018-Feb-22 09:00N 09°18' W 079°55'3 5.8
2018-Feb-22 08:30N 09°21' W 079°55'4 6.7
2018-Feb-22 07:58N 09°25' W 079°55'4 8.5
2018-Feb-22 07:30N 09°27' W 079°59'2 3.2
2018-Feb-22 07:00N 09°27' W 080°00'1 1.2
2018-Feb-22 06:31N 09°28' W 079°60'0 0.8
2018-Feb-22 05:59N 09°28' W 079°59'1 1.1
2018-Feb-22 05:30N 09°28' W 079°59'1 1.2
2018-Feb-22 05:00N 09°29' W 079°59'1 1.2
2018-Feb-22 04:26N 09°30' W 079°59'1 1.2
2018-Feb-22 03:54N 09°30' W 079°59'1 1.2
2018-Feb-22 03:24N 09°31' W 079°58'2 3.4
2018-Feb-22 02:54N 09°32' W 079°60'  

Dump ship's entire track history